createdAt,value
2023-05-10T00:00:16.064Z,12.01
2023-05-10T00:02:45.980Z,11.99
2023-05-10T00:05:14.724Z,12.28
2023-05-10T00:07:45.773Z,12.41
2023-05-10T00:10:15.207Z,12.36
2023-05-10T00:12:44.413Z,12.18
2023-05-10T00:15:14.659Z,12.22
2023-05-10T00:17:43.347Z,12.23
2023-05-10T00:20:13.779Z,11.88
2023-05-10T00:22:42.534Z,11.72
2023-05-10T00:25:11.824Z,11.52
2023-05-10T00:27:40.555Z,11.68
2023-05-10T00:30:10.653Z,11.75
2023-05-10T00:32:40.721Z,11.91
2023-05-10T00:35:10.687Z,12.00
2023-05-10T00:37:39.375Z,11.56
2023-05-10T00:40:09.778Z,11.31
2023-05-10T00:42:38.515Z,11.35
2023-05-10T00:45:10.266Z,11.49
2023-05-10T00:47:40.738Z,11.60
2023-05-10T00:50:11.330Z,11.69
2023-05-10T00:52:40.100Z,11.74
2023-05-10T00:55:11.832Z,11.52
2023-05-10T00:57:40.934Z,11.50
2023-05-10T01:00:12.232Z,11.55
2023-05-10T01:02:43.906Z,11.54
2023-05-10T01:05:13.033Z,11.50
2023-05-10T01:07:42.137Z,11.50
2023-05-10T01:10:12.874Z,11.38
2023-05-10T01:12:46.314Z,11.37
2023-05-10T01:15:17.161Z,11.03
2023-05-10T01:17:51.122Z,11.11
2023-05-10T01:20:20.197Z,11.21
2023-05-10T01:23:33.398Z,11.22
2023-05-10T01:26:59.589Z,11.27
2023-05-10T01:30:27.609Z,10.93
2023-05-10T01:33:04.091Z,10.66
2023-05-10T01:35:43.324Z,10.67
2023-05-10T01:38:29.256Z,10.72
2023-05-10T01:41:15.236Z,10.64
2023-05-10T01:43:56.418Z,10.55
2023-05-10T01:46:35.596Z,10.38
2023-05-10T01:49:11.563Z,10.16
2023-05-10T01:51:49.359Z,10.23
2023-05-10T01:54:22.506Z,10.45
2023-05-10T01:57:09.931Z,10.59
2023-05-10T01:59:42.684Z,10.55
2023-05-10T02:02:14.356Z,10.63
2023-05-10T02:04:46.894Z,10.67
2023-05-10T02:07:18.407Z,10.69
2023-05-10T02:09:50.033Z,10.67
2023-05-10T02:12:20.294Z,10.69
2023-05-10T02:14:53.793Z,10.66
2023-05-10T02:17:25.274Z,10.66
2023-05-10T02:19:57.864Z,10.61
2023-05-10T02:22:28.812Z,10.57
2023-05-10T02:24:59.940Z,10.56
2023-05-10T02:27:31.771Z,10.56
2023-05-10T02:30:01.218Z,10.54
2023-05-10T02:32:32.078Z,10.54
2023-05-10T02:35:06.158Z,10.27
2023-05-10T02:37:38.984Z,10.07
2023-05-10T02:40:10.794Z,9.99
2023-05-10T02:42:44.554Z,10.04
2023-05-10T02:45:20.547Z,9.95
2023-05-10T02:47:49.605Z,9.96
2023-05-10T02:50:20.522Z,9.90
2023-05-10T02:52:54.005Z,9.85
2023-05-10T02:55:33.357Z,9.72
2023-05-10T02:58:04.751Z,9.78
2023-05-10T03:00:34.468Z,9.77
2023-05-10T03:03:03.431Z,9.80
2023-05-10T03:05:34.219Z,9.77
2023-05-10T03:08:07.176Z,9.85
2023-05-10T03:10:49.985Z,9.63
2023-05-10T03:13:36.469Z,9.39
2023-05-10T03:16:12.820Z,9.10
2023-05-10T03:18:50.549Z,9.15
2023-05-10T03:21:25.227Z,9.32
2023-05-10T03:24:02.165Z,9.36
2023-05-10T03:26:33.143Z,9.19
2023-05-10T03:29:11.562Z,8.94
2023-05-10T03:31:42.027Z,8.94
2023-05-10T03:34:11.595Z,9.15
2023-05-10T03:36:41.708Z,9.20
2023-05-10T03:39:11.541Z,9.30
2023-05-10T03:41:40.544Z,9.42
2023-05-10T03:44:09.614Z,9.48
2023-05-10T03:46:38.378Z,9.54
2023-05-10T03:49:07.153Z,9.29
2023-05-10T03:51:36.028Z,9.13
2023-05-10T03:54:06.613Z,9.06
2023-05-10T03:56:35.930Z,9.15
2023-05-10T03:59:08.321Z,9.29
2023-05-10T04:01:37.595Z,9.30
2023-05-10T04:04:06.567Z,9.20
2023-05-10T04:06:35.413Z,8.99
2023-05-10T04:09:06.449Z,8.75
2023-05-10T04:11:35.101Z,8.72
2023-05-10T04:14:04.091Z,8.77
2023-05-10T04:16:33.135Z,8.98
2023-05-10T04:19:02.775Z,9.14
2023-05-10T04:21:31.551Z,9.16
2023-05-10T04:24:00.423Z,9.02
2023-05-10T04:26:30.751Z,9.03
2023-05-10T04:28:59.545Z,9.00
2023-05-10T04:31:31.559Z,8.99
2023-05-10T04:34:02.647Z,9.10
2023-05-10T04:36:31.437Z,8.88
2023-05-10T04:39:00.295Z,8.84
2023-05-10T04:41:30.569Z,8.88
2023-05-10T04:43:59.276Z,8.89
2023-05-10T04:46:28.029Z,8.82
2023-05-10T04:48:56.744Z,8.81
2023-05-10T04:51:25.510Z,8.97
2023-05-10T04:54:05.363Z,9.14
2023-05-10T04:56:36.471Z,9.28
2023-05-10T04:59:05.278Z,9.25
2023-05-10T05:01:34.025Z,9.29
2023-05-10T05:04:02.727Z,9.18
2023-05-10T05:06:31.492Z,9.33
2023-05-10T05:09:12.815Z,9.36
2023-05-10T05:11:42.939Z,9.49
2023-05-10T05:14:11.820Z,9.62
2023-05-10T05:16:40.633Z,9.72
2023-05-10T05:19:09.518Z,9.60
2023-05-10T05:21:38.420Z,9.57
2023-05-10T05:24:08.876Z,9.48
2023-05-10T05:26:37.830Z,9.55
2023-05-10T05:29:08.217Z,9.78
2023-05-10T05:31:37.112Z,9.80
2023-05-10T05:34:06.052Z,9.85
2023-05-10T05:36:37.056Z,9.89
2023-05-10T05:39:06.417Z,9.95
2023-05-10T05:41:35.165Z,10.11
2023-05-10T05:44:03.826Z,10.29
2023-05-10T05:46:33.887Z,10.30
2023-05-10T05:49:02.734Z,10.55
2023-05-10T05:51:32.245Z,10.71
2023-05-10T05:54:00.957Z,10.88
2023-05-10T05:56:29.553Z,11.04
2023-05-10T05:58:58.272Z,11.16
2023-05-10T06:01:26.945Z,11.28
2023-05-10T06:03:57.123Z,11.40
2023-05-10T06:06:26.504Z,11.53
2023-05-10T06:08:55.197Z,11.68
2023-05-10T06:11:23.973Z,11.78
2023-05-10T06:13:52.612Z,11.82
2023-05-10T06:16:21.309Z,11.91
2023-05-10T06:18:50.339Z,12.08
2023-05-10T06:21:20.467Z,12.24
2023-05-10T06:23:49.176Z,12.39
2023-05-10T06:26:17.852Z,12.54
2023-05-10T06:28:46.570Z,12.64
2023-05-10T06:31:15.321Z,12.80
2023-05-10T06:33:44.075Z,12.90
2023-05-10T06:36:12.822Z,13.02
2023-05-10T06:38:43.047Z,13.12
2023-05-10T06:41:11.887Z,13.23
2023-05-10T06:43:42.260Z,13.35
2023-05-10T06:46:11.154Z,13.48
2023-05-10T06:48:39.893Z,13.60
2023-05-10T06:51:08.588Z,13.71
2023-05-10T06:53:37.257Z,13.80
2023-05-10T06:56:08.161Z,13.91
2023-05-10T06:58:36.865Z,14.00
2023-05-10T07:01:06.218Z,14.06
2023-05-10T07:03:35.194Z,14.18
2023-05-10T07:06:05.430Z,14.28
2023-05-10T07:08:34.312Z,14.34
2023-05-10T07:11:04.728Z,14.40
2023-05-10T07:13:35.028Z,14.50
2023-05-10T07:16:04.113Z,14.59
2023-05-10T07:18:32.867Z,14.67
2023-05-10T07:21:01.598Z,14.70
2023-05-10T07:23:30.688Z,14.79
2023-05-10T07:25:59.515Z,14.91
2023-05-10T07:28:28.199Z,15.00
2023-05-10T07:30:58.808Z,15.09
2023-05-10T07:33:27.506Z,15.17
2023-05-10T07:35:56.150Z,15.24
2023-05-10T07:38:25.455Z,15.40
2023-05-10T07:40:54.087Z,15.52
2023-05-10T07:43:22.813Z,15.59
2023-05-10T07:45:52.786Z,15.56
2023-05-10T07:48:24.842Z,15.56
2023-05-10T07:50:53.508Z,15.68
2023-05-10T07:53:22.159Z,15.73
2023-05-10T07:55:53.816Z,15.85
2023-05-10T07:58:22.542Z,15.96
2023-05-10T08:00:51.379Z,16.06
2023-05-10T08:03:20.187Z,16.11
2023-05-10T08:05:50.390Z,16.17
2023-05-10T08:08:19.351Z,16.24
2023-05-10T08:10:47.923Z,16.30
2023-05-10T08:13:16.546Z,16.44
2023-05-10T08:15:45.261Z,16.52
2023-05-10T08:18:14.055Z,16.53
2023-05-10T08:20:42.808Z,16.64
2023-05-10T08:23:14.792Z,16.69
2023-05-10T08:25:43.534Z,16.80
2023-05-10T08:28:12.213Z,16.91
2023-05-10T08:30:40.941Z,17.03
2023-05-10T08:33:09.709Z,17.10
2023-05-10T08:35:38.600Z,17.18
2023-05-10T08:38:07.274Z,17.24
2023-05-10T08:40:39.400Z,17.28
2023-05-10T08:43:11.077Z,17.35
2023-05-10T08:45:42.732Z,17.48
2023-05-10T08:48:12.863Z,17.47
2023-05-10T08:50:43.994Z,17.61
2023-05-10T08:53:15.119Z,17.71
2023-05-10T08:55:45.440Z,17.90
2023-05-10T08:58:14.160Z,17.98
2023-05-10T09:00:43.458Z,18.16
2023-05-10T09:03:12.805Z,18.26
2023-05-10T09:05:42.426Z,18.37
2023-05-10T09:08:11.570Z,18.37
2023-05-10T09:10:43.286Z,18.55
2023-05-10T09:13:13.940Z,18.65
2023-05-10T09:15:42.761Z,18.80
2023-05-10T09:18:11.579Z,18.84
2023-05-10T09:20:40.216Z,18.89
2023-05-10T09:23:08.977Z,19.06
2023-05-10T09:25:39.600Z,19.15
2023-05-10T09:28:10.788Z,19.14
2023-05-10T09:30:41.389Z,19.33
2023-05-10T09:33:10.050Z,19.37
2023-05-10T09:35:41.176Z,19.52
2023-05-10T09:38:11.439Z,19.64
2023-05-10T09:40:40.306Z,19.64
2023-05-10T09:43:10.093Z,19.85
2023-05-10T09:45:40.289Z,20.04
2023-05-10T09:48:09.117Z,20.30
2023-05-10T09:50:37.925Z,20.55
2023-05-10T09:53:06.654Z,20.76
2023-05-10T09:55:45.872Z,20.91
2023-05-10T09:58:16.266Z,20.91
2023-05-10T10:00:52.330Z,21.25
2023-05-10T10:03:23.714Z,21.55
2023-05-10T10:05:54.369Z,21.67
2023-05-10T10:08:23.143Z,21.85
2023-05-10T10:10:52.229Z,21.89
2023-05-10T10:13:21.271Z,21.87
2023-05-10T10:15:53.150Z,21.97
2023-05-10T10:18:28.071Z,21.97
2023-05-10T10:20:59.140Z,22.24
2023-05-10T10:23:29.401Z,22.34
2023-05-10T10:25:58.596Z,22.50
2023-05-10T10:28:49.638Z,22.49
2023-05-10T10:31:39.901Z,22.53
2023-05-10T10:34:17.866Z,22.60
2023-05-10T10:36:49.214Z,22.64
2023-05-10T10:39:18.204Z,22.82
2023-05-10T10:41:53.851Z,22.79
2023-05-10T10:44:39.171Z,22.75
2023-05-10T10:47:30.785Z,22.71
2023-05-10T10:50:07.929Z,22.93
2023-05-10T10:52:38.422Z,22.87
2023-05-10T10:55:10.474Z,22.77
2023-05-10T10:57:49.523Z,22.86
2023-05-10T11:00:28.173Z,23.19
2023-05-10T11:03:01.464Z,23.55
2023-05-10T11:05:40.620Z,23.27
2023-05-10T11:08:17.236Z,22.85
2023-05-10T11:11:07.813Z,22.37
2023-05-10T11:13:42.918Z,22.18
2023-05-10T11:16:18.702Z,21.97
2023-05-10T11:19:06.155Z,21.63
2023-05-10T11:21:36.565Z,21.53
2023-05-10T11:24:16.256Z,21.53
2023-05-10T11:26:45.876Z,21.60
2023-05-10T11:29:16.023Z,21.71
2023-05-10T11:31:49.654Z,21.71
2023-05-10T11:34:29.396Z,21.86
2023-05-10T11:36:59.125Z,21.99
2023-05-10T11:39:29.825Z,22.15
2023-05-10T11:41:59.243Z,22.44
2023-05-10T11:44:33.120Z,22.53
2023-05-10T11:47:02.526Z,22.83
2023-05-10T11:49:32.930Z,23.29
2023-05-10T11:52:08.749Z,23.57
2023-05-10T11:54:37.638Z,23.88
2023-05-10T11:57:06.716Z,23.65
2023-05-10T11:59:35.472Z,23.34
2023-05-10T12:02:04.366Z,23.28
2023-05-10T12:04:34.961Z,23.48
2023-05-10T12:07:03.867Z,23.45
2023-05-10T12:09:43.316Z,23.18
2023-05-10T12:12:12.964Z,22.91
2023-05-10T12:14:41.770Z,22.71
2023-05-10T12:17:15.226Z,22.65
2023-05-10T12:19:56.823Z,22.46
2023-05-10T12:22:25.687Z,22.26
2023-05-10T12:24:54.469Z,22.26
2023-05-10T12:27:26.201Z,22.28
2023-05-10T12:29:56.032Z,22.20
2023-05-10T12:32:40.922Z,22.10
2023-05-10T12:35:11.316Z,22.03
2023-05-10T12:37:40.915Z,21.89
2023-05-10T12:40:12.888Z,21.82
2023-05-10T12:42:42.616Z,21.76
2023-05-10T12:45:12.547Z,21.56
2023-05-10T12:47:48.747Z,21.45
2023-05-10T12:50:19.253Z,21.35
2023-05-10T12:52:48.107Z,21.36
2023-05-10T12:55:17.277Z,21.30
2023-05-10T12:57:45.987Z,21.24
2023-05-10T13:00:17.296Z,21.21
2023-05-10T13:02:46.310Z,21.13
2023-05-10T13:05:15.298Z,21.04
2023-05-10T13:07:46.251Z,20.92
2023-05-10T13:10:15.293Z,20.71
2023-05-10T13:12:44.282Z,20.34
2023-05-10T13:15:13.146Z,20.37
2023-05-10T13:17:43.750Z,20.37
2023-05-10T13:20:13.743Z,20.34
2023-05-10T13:22:45.429Z,20.33
2023-05-10T13:25:15.212Z,20.43
2023-05-10T13:27:44.000Z,20.53
2023-05-10T13:30:13.425Z,20.56
2023-05-10T13:32:42.132Z,20.58
2023-05-10T13:35:11.395Z,20.40
2023-05-10T13:37:40.090Z,20.38
2023-05-10T13:40:11.644Z,20.41
2023-05-10T13:42:40.768Z,20.57
2023-05-10T13:45:10.839Z,20.64
2023-05-10T13:47:39.684Z,20.71
2023-05-10T13:50:09.629Z,20.87
2023-05-10T13:52:38.412Z,20.87
2023-05-10T13:55:09.699Z,20.71
2023-05-10T13:57:38.521Z,20.72
2023-05-10T14:00:09.306Z,20.72
2023-05-10T14:02:38.289Z,20.72
2023-05-10T14:05:08.192Z,20.72
2023-05-10T14:07:37.031Z,20.70
2023-05-10T14:10:06.534Z,20.65
2023-05-10T14:12:37.352Z,20.52
2023-05-10T14:15:11.419Z,20.49
2023-05-10T14:17:40.934Z,20.49
2023-05-10T14:20:12.522Z,20.48
2023-05-10T14:22:42.308Z,20.33
2023-05-10T14:25:12.703Z,20.25
2023-05-10T14:27:43.882Z,20.39
2023-05-10T14:30:14.245Z,20.52
2023-05-10T14:32:43.281Z,20.36
2023-05-10T14:35:14.488Z,20.25
2023-05-10T14:37:45.059Z,20.26
2023-05-10T14:40:16.239Z,20.23
2023-05-10T14:42:47.490Z,20.03
2023-05-10T14:45:16.992Z,19.93
2023-05-10T14:47:45.936Z,19.91
2023-05-10T14:50:28.226Z,19.81
2023-05-10T14:53:03.870Z,19.87
2023-05-10T14:55:33.944Z,19.80
2023-05-10T14:58:04.885Z,19.68
2023-05-10T15:00:36.461Z,19.60
2023-05-10T15:03:06.338Z,19.62
2023-05-10T15:05:35.631Z,19.75
2023-05-10T15:08:06.659Z,19.85
2023-05-10T15:10:36.077Z,19.87
2023-05-10T15:13:07.066Z,19.94
2023-05-10T15:15:40.172Z,19.92
2023-05-10T15:18:09.632Z,20.07
2023-05-10T15:20:38.835Z,20.13
2023-05-10T15:23:07.878Z,20.00
2023-05-10T15:25:38.384Z,20.06
2023-05-10T15:28:08.720Z,19.87
2023-05-10T15:30:37.767Z,19.92
2023-05-10T15:33:07.318Z,19.99
2023-05-10T15:35:39.277Z,19.98
2023-05-10T15:38:08.284Z,19.99
2023-05-10T15:40:37.046Z,19.97
2023-05-10T15:43:07.502Z,19.93
2023-05-10T15:45:37.762Z,19.85
2023-05-10T15:48:07.558Z,19.84
2023-05-10T15:50:36.389Z,19.85
2023-05-10T15:53:05.133Z,19.78
2023-05-10T15:55:35.363Z,19.70
2023-05-10T15:58:04.252Z,19.61
2023-05-10T16:00:34.880Z,19.59
2023-05-10T16:03:04.058Z,19.55
2023-05-10T16:05:33.876Z,19.56
2023-05-10T16:08:17.114Z,19.65
2023-05-10T16:10:47.449Z,19.54
2023-05-10T16:13:17.039Z,19.59
2023-05-10T16:15:48.719Z,19.46
2023-05-10T16:18:24.764Z,19.45
2023-05-10T16:20:55.651Z,19.46
2023-05-10T16:23:24.372Z,19.42
2023-05-10T16:25:53.721Z,19.44
2023-05-10T16:28:25.389Z,19.41
2023-05-10T16:30:59.965Z,19.36
2023-05-10T16:33:29.902Z,19.08
2023-05-10T16:35:58.661Z,19.15
2023-05-10T16:38:27.617Z,19.18
2023-05-10T16:40:57.671Z,19.11
2023-05-10T16:43:34.429Z,19.06
2023-05-10T16:46:12.030Z,19.02
2023-05-10T16:48:53.213Z,19.08
2023-05-10T16:51:22.312Z,19.00
2023-05-10T16:53:51.020Z,19.00
2023-05-10T16:56:21.763Z,18.92
2023-05-10T16:58:50.526Z,18.82
2023-05-10T17:01:23.226Z,18.84
2023-05-10T17:03:53.227Z,18.88
2023-05-10T17:06:22.309Z,18.73
2023-05-10T17:08:52.352Z,18.65
2023-05-10T17:11:21.930Z,18.64
2023-05-10T17:13:52.550Z,18.64
2023-05-10T17:16:23.125Z,18.53
2023-05-10T17:18:53.325Z,18.55
2023-05-10T17:21:22.349Z,18.45
2023-05-10T17:23:51.477Z,18.54
2023-05-10T17:26:20.541Z,18.57
2023-05-10T17:28:49.941Z,18.57
2023-05-10T17:31:19.191Z,18.54
2023-05-10T17:33:50.175Z,18.46
2023-05-10T17:36:19.291Z,18.46
2023-05-10T17:38:48.037Z,18.47
2023-05-10T17:41:17.119Z,18.39
2023-05-10T17:43:45.853Z,18.27
2023-05-10T17:46:14.943Z,18.19
2023-05-10T17:48:43.860Z,18.13
2023-05-10T17:51:14.155Z,18.23
2023-05-10T17:53:43.343Z,18.13
2023-05-10T17:56:12.117Z,18.18
2023-05-10T17:58:40.863Z,18.20
2023-05-10T18:01:09.975Z,18.12
2023-05-10T18:03:38.950Z,18.12
2023-05-10T18:06:11.992Z,18.07
2023-05-10T18:08:43.139Z,18.03
2023-05-10T18:11:11.844Z,18.06
2023-05-10T18:13:40.608Z,18.04
2023-05-10T18:16:12.785Z,17.95
2023-05-10T18:18:41.627Z,17.95
2023-05-10T18:21:10.525Z,17.73
2023-05-10T18:23:39.534Z,17.77
2023-05-10T18:26:10.738Z,17.79
2023-05-10T18:28:39.620Z,17.58
2023-05-10T18:31:08.892Z,17.59
2023-05-10T18:33:40.742Z,17.60
2023-05-10T18:36:09.768Z,17.59
2023-05-10T18:38:38.879Z,17.51
2023-05-10T18:41:12.379Z,17.46
2023-05-10T18:43:42.508Z,17.30
2023-05-10T18:46:11.252Z,17.15
2023-05-10T18:48:40.700Z,17.25
2023-05-10T18:51:09.521Z,17.23
2023-05-10T18:53:38.614Z,17.17
2023-05-10T18:56:11.464Z,17.14
2023-05-10T18:58:40.364Z,16.95
2023-05-10T19:01:09.198Z,16.95
2023-05-10T19:03:38.052Z,16.81
2023-05-10T19:06:06.781Z,16.69
2023-05-10T19:08:35.516Z,16.61
2023-05-10T19:11:04.197Z,16.62
2023-05-10T19:13:34.336Z,16.42
2023-05-10T19:16:14.056Z,16.40
2023-05-10T19:18:44.130Z,16.50
2023-05-10T19:21:13.889Z,16.46
2023-05-10T19:23:43.192Z,16.32
2023-05-10T19:26:13.885Z,16.39
2023-05-10T19:28:53.946Z,16.46
2023-05-10T19:31:23.410Z,16.43
2023-05-10T19:33:53.081Z,16.28
2023-05-10T19:36:21.999Z,16.15
2023-05-10T19:38:51.204Z,16.10
2023-05-10T19:41:20.360Z,16.10
2023-05-10T19:43:49.145Z,16.02
2023-05-10T19:46:21.031Z,16.02
2023-05-10T19:48:51.052Z,16.03
2023-05-10T19:51:20.000Z,15.91
2023-05-10T19:53:48.746Z,15.91
2023-05-10T19:56:18.510Z,16.07
2023-05-10T19:58:47.420Z,16.07
2023-05-10T20:01:16.235Z,15.93
2023-05-10T20:03:47.624Z,15.82
2023-05-10T20:06:16.387Z,15.72
2023-05-10T20:08:45.114Z,15.60
2023-05-10T20:11:13.941Z,15.64
2023-05-10T20:13:42.805Z,15.75
2023-05-10T20:16:12.276Z,15.79
2023-05-10T20:18:41.222Z,15.66
2023-05-10T20:21:11.390Z,15.69
2023-05-10T20:23:40.281Z,15.61
2023-05-10T20:26:09.366Z,15.46
2023-05-10T20:28:38.255Z,15.53
2023-05-10T20:31:10.298Z,15.27
2023-05-10T20:33:39.054Z,15.20
2023-05-10T20:36:09.651Z,15.33
2023-05-10T20:38:39.860Z,15.39
2023-05-10T20:41:08.575Z,15.29
2023-05-10T20:43:37.706Z,15.35
2023-05-10T20:46:06.696Z,15.22
2023-05-10T20:48:35.587Z,15.24
2023-05-10T20:51:04.512Z,15.13
2023-05-10T20:53:33.569Z,14.88
2023-05-10T20:56:03.804Z,14.95
2023-05-10T20:58:32.770Z,15.08
2023-05-10T21:01:03.220Z,14.98
2023-05-10T21:03:32.036Z,14.87
2023-05-10T21:06:00.777Z,14.70
2023-05-10T21:08:29.488Z,14.51
2023-05-10T21:10:58.260Z,14.51
2023-05-10T21:13:28.471Z,14.67
2023-05-10T21:15:57.249Z,14.74
2023-05-10T21:18:26.082Z,14.74
2023-05-10T21:20:54.894Z,14.43
2023-05-10T21:23:23.584Z,14.23
2023-05-10T21:25:52.287Z,14.42
2023-05-10T21:28:21.040Z,14.57
2023-05-10T21:30:51.140Z,14.39
2023-05-10T21:33:19.794Z,14.38
2023-05-10T21:35:48.583Z,14.39
2023-05-10T21:38:17.416Z,14.29
2023-05-10T21:40:46.112Z,14.12
2023-05-10T21:43:14.804Z,14.00
2023-05-10T21:45:43.566Z,14.22
2023-05-10T21:48:13.753Z,14.23
2023-05-10T21:50:43.823Z,14.23
2023-05-10T21:53:12.629Z,14.07
2023-05-10T21:55:41.339Z,13.99
2023-05-10T21:58:10.025Z,13.97
2023-05-10T22:00:39.074Z,13.97
2023-05-10T22:03:07.965Z,14.02
2023-05-10T22:05:38.198Z,13.89
2023-05-10T22:08:07.948Z,13.60
2023-05-10T22:10:36.587Z,13.50
2023-05-10T22:13:05.344Z,13.40
2023-05-10T22:15:36.377Z,13.51
2023-05-10T22:18:06.122Z,13.57
2023-05-10T22:20:34.885Z,13.51
2023-05-10T22:23:05.026Z,13.59
2023-05-10T22:25:33.749Z,13.49
2023-05-10T22:28:02.700Z,13.63
2023-05-10T22:30:33.052Z,13.44
2023-05-10T22:33:02.021Z,13.21
2023-05-10T22:35:30.811Z,13.17
2023-05-10T22:37:59.495Z,13.06
2023-05-10T22:40:29.574Z,13.00
2023-05-10T22:42:58.482Z,13.12
2023-05-10T22:45:27.620Z,13.29
2023-05-10T22:47:56.494Z,13.34
2023-05-10T22:50:25.999Z,13.48
2023-05-10T22:52:54.713Z,13.42
2023-05-10T22:55:23.817Z,13.22
2023-05-10T22:57:54.667Z,13.30
2023-05-10T23:00:23.545Z,13.46
2023-05-10T23:02:52.982Z,13.33
2023-05-10T23:05:21.745Z,13.44
2023-05-10T23:07:53.316Z,13.51
2023-05-10T23:10:22.176Z,13.40
2023-05-10T23:12:51.022Z,13.41
2023-05-10T23:15:21.205Z,13.41
2023-05-10T23:17:50.005Z,13.41
2023-05-10T23:20:19.236Z,13.35
2023-05-10T23:22:48.249Z,13.45
2023-05-10T23:25:17.136Z,13.54
2023-05-10T23:27:45.924Z,13.57
2023-05-10T23:30:15.065Z,13.54
2023-05-10T23:32:45.191Z,13.54
2023-05-10T23:35:13.962Z,13.56
2023-05-10T23:37:43.205Z,13.60
2023-05-10T23:40:13.564Z,13.48
2023-05-10T23:42:42.390Z,13.40
2023-05-10T23:45:12.211Z,13.42
2023-05-10T23:47:42.039Z,13.34
2023-05-10T23:50:12.967Z,13.25
2023-05-10T23:52:41.757Z,13.17
2023-05-10T23:55:11.981Z,13.07
2023-05-10T23:57:40.680Z,13.17
